createdAt,value
2023-05-24T00:00:44.985Z,6.38
2023-05-24T00:01:44.966Z,6.10
2023-05-24T00:02:45.033Z,6.49
2023-05-24T00:03:45.126Z,5.44
2023-05-24T00:04:44.968Z,6.16
2023-05-24T00:05:44.967Z,6.32
2023-05-24T00:06:44.902Z,6.19
2023-05-24T00:07:44.925Z,7.18
2023-05-24T00:08:44.926Z,7.57
2023-05-24T00:09:44.911Z,7.71
2023-05-24T00:10:44.970Z,7.43
2023-05-24T00:11:44.904Z,8.61
2023-05-24T00:12:44.865Z,8.09
2023-05-24T00:13:44.901Z,7.30
2023-05-24T00:14:44.867Z,7.76
2023-05-24T00:15:44.877Z,7.72
2023-05-24T00:16:44.850Z,7.47
2023-05-24T00:17:44.910Z,6.76
2023-05-24T00:18:44.842Z,6.35
2023-05-24T00:19:44.887Z,7.56
2023-05-24T00:20:45.218Z,7.17
2023-05-24T00:21:44.814Z,7.20
2023-05-24T00:22:44.811Z,9.17
2023-05-24T00:23:44.818Z,9.05
2023-05-24T00:24:44.849Z,8.14
2023-05-24T00:25:44.833Z,8.75
2023-05-24T00:26:44.849Z,8.71
2023-05-24T00:27:44.788Z,8.14
2023-05-24T00:28:44.774Z,9.15
2023-05-24T00:29:44.793Z,9.94
2023-05-24T00:30:44.919Z,9.09
2023-05-24T00:31:44.808Z,8.86
2023-05-24T00:32:44.790Z,10.01
2023-05-24T00:33:44.739Z,9.05
2023-05-24T00:34:44.723Z,10.61
2023-05-24T00:35:44.777Z,10.33
2023-05-24T00:36:44.782Z,9.55
2023-05-24T00:37:44.717Z,9.89
2023-05-24T00:38:44.766Z,10.55
2023-05-24T00:39:44.836Z,10.26
2023-05-24T00:40:44.826Z,10.25
2023-05-24T00:41:44.868Z,11.12
2023-05-24T00:42:44.861Z,11.24
2023-05-24T00:43:44.901Z,11.13
2023-05-24T00:44:44.898Z,10.53
2023-05-24T00:45:44.985Z,10.32
2023-05-24T00:46:44.974Z,10.06
2023-05-24T00:47:45.028Z,11.73
2023-05-24T00:48:44.988Z,10.26
2023-05-24T00:49:45.029Z,11.00
2023-05-24T00:50:45.112Z,11.63
2023-05-24T00:51:45.142Z,11.77
2023-05-24T00:52:45.208Z,11.50
2023-05-24T00:53:45.182Z,9.89
2023-05-24T00:54:45.289Z,11.55
2023-05-24T00:55:45.345Z,11.07
2023-05-24T00:56:45.370Z,11.24
2023-05-24T00:57:45.431Z,11.45
2023-05-24T00:58:45.408Z,11.89
2023-05-24T00:59:45.431Z,11.26
2023-05-24T01:00:45.551Z,11.47
2023-05-24T01:01:45.596Z,11.44
2023-05-24T01:02:45.692Z,11.29
2023-05-24T01:03:45.667Z,11.77
2023-05-24T01:04:45.632Z,10.83
2023-05-24T01:05:45.711Z,10.87
2023-05-24T01:06:45.710Z,12.53
2023-05-24T01:07:45.721Z,11.59
2023-05-24T01:08:45.753Z,11.81
2023-05-24T01:09:45.769Z,12.40
2023-05-24T01:10:45.820Z,12.21
2023-05-24T01:11:45.809Z,11.08
2023-05-24T01:12:45.881Z,12.16
2023-05-24T01:13:45.891Z,12.21
2023-05-24T01:14:45.895Z,11.47
2023-05-24T01:15:46.018Z,11.38
2023-05-24T01:16:45.962Z,11.65
2023-05-24T01:17:46.037Z,11.30
2023-05-24T01:18:46.066Z,10.88
2023-05-24T01:19:46.080Z,11.55
2023-05-24T01:20:46.268Z,11.34
2023-05-24T01:21:46.163Z,11.00
2023-05-24T01:22:46.198Z,12.62
2023-05-24T01:23:46.164Z,12.31
2023-05-24T01:24:46.278Z,11.92
2023-05-24T01:25:46.287Z,10.80
2023-05-24T01:26:46.265Z,12.55
2023-05-24T01:27:46.299Z,12.63
2023-05-24T01:28:46.337Z,12.44
2023-05-24T01:29:46.361Z,12.04
2023-05-24T01:30:46.419Z,11.44
2023-05-24T01:31:46.646Z,11.68
2023-05-24T01:32:46.559Z,11.95
2023-05-24T01:33:46.544Z,10.66
2023-05-24T01:34:46.544Z,10.39
2023-05-24T01:35:46.622Z,11.78
2023-05-24T01:36:46.606Z,10.68
2023-05-24T01:37:46.611Z,10.96
2023-05-24T01:38:46.646Z,10.87
2023-05-24T01:39:46.684Z,10.59
2023-05-24T01:40:46.694Z,10.68
2023-05-24T01:41:46.651Z,10.86
2023-05-24T01:42:46.703Z,11.21
2023-05-24T01:43:46.720Z,9.96
2023-05-24T01:44:46.771Z,10.19
2023-05-24T01:45:46.817Z,10.70
2023-05-24T01:46:46.844Z,11.61
2023-05-24T01:47:46.971Z,10.39
2023-05-24T01:48:46.907Z,10.51
2023-05-24T01:49:46.923Z,11.21
2023-05-24T01:50:47.018Z,10.96
2023-05-24T01:51:47.043Z,10.97
2023-05-24T01:52:47.076Z,10.91
2023-05-24T01:53:47.170Z,10.68
2023-05-24T01:54:47.147Z,11.61
2023-05-24T01:55:47.139Z,10.15
2023-05-24T01:56:47.201Z,11.23
2023-05-24T01:57:47.204Z,10.66
2023-05-24T01:58:47.279Z,10.25
2023-05-24T01:59:47.338Z,9.70
2023-05-24T02:00:47.426Z,10.74
2023-05-24T02:01:47.450Z,10.77
2023-05-24T02:02:47.563Z,10.10
2023-05-24T02:03:47.520Z,11.36
2023-05-24T02:04:47.544Z,10.66
2023-05-24T02:05:47.580Z,9.76
2023-05-24T02:06:47.605Z,11.09
2023-05-24T02:07:47.573Z,10.31
2023-05-24T02:08:47.690Z,9.86
2023-05-24T02:09:47.663Z,10.78
2023-05-24T02:10:47.717Z,10.39
2023-05-24T02:11:47.714Z,10.20
2023-05-24T02:12:47.811Z,11.02
2023-05-24T02:13:47.800Z,9.64
2023-05-24T02:14:47.868Z,10.62
2023-05-24T02:15:47.994Z,10.27
2023-05-24T02:16:47.952Z,10.25
2023-05-24T02:17:47.964Z,10.27
2023-05-24T02:18:47.954Z,11.71
2023-05-24T02:19:48.020Z,10.64
2023-05-24T02:20:48.053Z,10.00
2023-05-24T02:21:48.052Z,10.87
2023-05-24T02:22:48.042Z,10.11
2023-05-24T02:23:48.106Z,9.77
2023-05-24T02:24:48.128Z,11.11
2023-05-24T02:25:48.211Z,11.25
2023-05-24T02:26:48.188Z,10.90
2023-05-24T02:27:48.242Z,11.14
2023-05-24T02:28:48.392Z,11.16
2023-05-24T02:29:48.466Z,10.94
2023-05-24T02:30:48.443Z,10.59
2023-05-24T02:31:48.429Z,10.60
2023-05-24T02:32:48.521Z,10.22
2023-05-24T02:33:48.502Z,10.33
2023-05-24T02:34:48.543Z,9.70
2023-05-24T02:35:48.598Z,10.34
2023-05-24T02:36:48.577Z,9.83
2023-05-24T02:37:48.652Z,10.58
2023-05-24T02:38:48.713Z,10.51
2023-05-24T02:39:48.723Z,10.14
2023-05-24T02:40:48.727Z,10.74
2023-05-24T02:41:48.770Z,10.63
2023-05-24T02:42:48.758Z,10.82
2023-05-24T02:43:48.780Z,10.09
2023-05-24T02:44:48.810Z,9.96
2023-05-24T02:45:48.927Z,9.32
2023-05-24T02:46:48.939Z,11.29
2023-05-24T02:47:49.028Z,10.36
2023-05-24T02:48:48.974Z,8.94
2023-05-24T02:49:49.668Z,10.94
2023-05-24T02:50:49.042Z,9.50
2023-05-24T02:51:49.002Z,10.33
2023-05-24T02:52:49.041Z,10.24
2023-05-24T02:53:49.056Z,10.81
2023-05-24T02:54:49.113Z,10.62
2023-05-24T02:55:49.096Z,10.15
2023-05-24T02:56:49.097Z,10.60
2023-05-24T02:57:49.180Z,11.34
2023-05-24T02:58:49.208Z,10.37
2023-05-24T02:59:49.269Z,10.49
2023-05-24T03:00:49.277Z,11.61
2023-05-24T03:01:49.321Z,9.73
2023-05-24T03:02:49.424Z,12.55
2023-05-24T03:03:49.410Z,12.07
2023-05-24T03:04:49.328Z,11.73
2023-05-24T03:05:49.386Z,11.10
2023-05-24T03:06:49.399Z,10.87
2023-05-24T03:07:49.466Z,10.70
2023-05-24T03:08:49.473Z,10.88
2023-05-24T03:09:49.535Z,11.13
2023-05-24T03:10:49.542Z,11.62
2023-05-24T03:11:49.577Z,10.19
2023-05-24T03:12:49.640Z,10.93
2023-05-24T03:13:49.651Z,11.32
2023-05-24T03:14:49.698Z,9.90
2023-05-24T03:15:49.838Z,10.41
2023-05-24T03:16:49.690Z,11.34
2023-05-24T03:17:49.745Z,11.38
2023-05-24T03:18:49.792Z,11.32
2023-05-24T03:19:49.848Z,10.66
2023-05-24T03:20:49.863Z,10.62
2023-05-24T03:21:49.859Z,11.29
2023-05-24T03:22:49.872Z,11.27
2023-05-24T03:23:49.870Z,10.91
2023-05-24T03:24:49.906Z,10.92
2023-05-24T03:25:49.939Z,11.56
2023-05-24T03:26:49.944Z,10.58
2023-05-24T03:27:49.986Z,11.08
2023-05-24T03:28:50.031Z,10.46
2023-05-24T03:29:50.062Z,10.44
2023-05-24T03:30:50.084Z,10.16
2023-05-24T03:31:50.191Z,10.04
2023-05-24T03:32:50.184Z,10.89
2023-05-24T03:33:50.208Z,10.45
2023-05-24T03:34:50.227Z,10.93
2023-05-24T03:35:50.336Z,10.96
2023-05-24T03:36:50.333Z,11.85
2023-05-24T03:37:50.397Z,9.42
2023-05-24T03:38:50.432Z,10.19
2023-05-24T03:39:50.428Z,10.28
2023-05-24T03:40:50.451Z,10.42
2023-05-24T03:41:50.527Z,10.52
2023-05-24T03:42:50.522Z,10.40
2023-05-24T03:43:50.596Z,10.85
2023-05-24T03:44:50.582Z,10.33
2023-05-24T03:45:50.626Z,10.45
2023-05-24T03:46:50.718Z,10.58
2023-05-24T03:47:50.763Z,11.57
2023-05-24T03:48:50.749Z,10.68
2023-05-24T03:49:50.724Z,10.65
2023-05-24T03:50:50.790Z,11.83
2023-05-24T03:51:50.763Z,11.94
2023-05-24T03:52:50.775Z,12.17
2023-05-24T03:53:50.809Z,13.06
2023-05-24T03:54:50.868Z,11.15
2023-05-24T03:55:50.895Z,11.42
2023-05-24T03:56:50.901Z,11.76
2023-05-24T03:57:50.933Z,13.10
2023-05-24T03:58:50.932Z,12.69
2023-05-24T03:59:50.965Z,11.71
2023-05-24T04:00:50.946Z,12.63
2023-05-24T04:01:50.968Z,12.00
2023-05-24T04:02:51.082Z,11.82
2023-05-24T04:03:51.113Z,12.00
2023-05-24T04:04:51.036Z,13.23
2023-05-24T04:05:51.041Z,10.61
2023-05-24T04:06:51.082Z,14.06
2023-05-24T04:07:51.083Z,11.95
2023-05-24T04:08:51.086Z,11.87
2023-05-24T04:09:51.157Z,13.91
2023-05-24T04:10:51.170Z,12.61
2023-05-24T04:11:51.202Z,13.55
2023-05-24T04:12:51.242Z,13.21
2023-05-24T04:13:51.235Z,11.93
2023-05-24T04:14:51.261Z,12.62
2023-05-24T04:15:51.305Z,13.29
2023-05-24T04:16:51.333Z,12.74
2023-05-24T04:17:51.384Z,12.95
2023-05-24T04:18:51.522Z,13.03
2023-05-24T04:19:51.470Z,13.33
2023-05-24T04:20:51.400Z,13.35
2023-05-24T04:21:51.404Z,13.34
2023-05-24T04:22:51.431Z,14.52
2023-05-24T04:23:51.502Z,12.94
2023-05-24T04:24:51.602Z,12.83
2023-05-24T04:25:51.579Z,12.61
2023-05-24T04:26:51.607Z,13.84
2023-05-24T04:27:51.615Z,12.59
2023-05-24T04:28:51.679Z,13.00
2023-05-24T04:29:51.642Z,15.96
2023-05-24T04:30:51.716Z,13.86
2023-05-24T04:31:51.964Z,14.45
2023-05-24T04:32:51.765Z,14.71
2023-05-24T04:33:51.810Z,14.53
2023-05-24T04:34:51.842Z,14.36
2023-05-24T04:35:51.844Z,15.58
2023-05-24T04:36:51.898Z,13.96
2023-05-24T04:37:51.930Z,14.56
2023-05-24T04:38:51.944Z,14.44
2023-05-24T04:39:51.991Z,13.85
2023-05-24T04:40:51.990Z,14.83
2023-05-24T04:41:52.011Z,14.09
2023-05-24T04:42:52.053Z,14.17
2023-05-24T04:43:52.108Z,14.39
2023-05-24T04:44:52.121Z,14.73
2023-05-24T04:45:52.252Z,14.40
2023-05-24T04:46:52.258Z,14.92
2023-05-24T04:47:52.306Z,15.92
2023-05-24T04:48:52.322Z,15.40
2023-05-24T04:49:52.320Z,15.13
2023-05-24T04:50:52.326Z,15.54
2023-05-24T04:51:54.587Z,15.77
2023-05-24T04:52:52.331Z,14.31
2023-05-24T04:53:52.335Z,15.65
2023-05-24T04:54:52.354Z,16.06
2023-05-24T04:55:52.361Z,16.36
2023-05-24T04:56:52.328Z,13.38
2023-05-24T04:57:52.324Z,14.31
2023-05-24T04:58:52.341Z,15.01
2023-05-24T04:59:52.349Z,15.44
2023-05-24T05:00:52.346Z,14.59
2023-05-24T05:01:52.351Z,14.48
2023-05-24T05:02:52.504Z,14.71
2023-05-24T05:03:52.355Z,14.94
2023-05-24T05:04:52.266Z,14.27
2023-05-24T05:05:52.275Z,15.82
2023-05-24T05:06:52.268Z,14.18
2023-05-24T05:07:52.286Z,15.56
2023-05-24T05:08:52.237Z,17.11
2023-05-24T05:09:52.257Z,15.96
2023-05-24T05:10:52.255Z,16.22
2023-05-24T05:11:52.198Z,15.99
2023-05-24T05:12:52.201Z,15.51
2023-05-24T05:13:52.219Z,15.85
2023-05-24T05:14:52.237Z,17.40
2023-05-24T05:15:52.211Z,15.49
2023-05-24T05:16:52.187Z,16.02
2023-05-24T05:17:52.198Z,16.15
2023-05-24T05:18:52.161Z,15.68
2023-05-24T05:19:52.248Z,16.96
2023-05-24T05:20:52.196Z,17.32
2023-05-24T05:21:52.166Z,15.33
2023-05-24T05:22:52.158Z,16.10
2023-05-24T05:23:52.169Z,17.57
2023-05-24T05:24:52.118Z,15.87
2023-05-24T05:25:52.134Z,17.48
2023-05-24T05:26:52.100Z,14.74
2023-05-24T05:27:52.114Z,15.13
2023-05-24T05:28:52.120Z,14.79
2023-05-24T05:29:52.147Z,16.55
2023-05-24T05:30:52.098Z,15.28
2023-05-24T05:31:52.126Z,16.18
2023-05-24T05:32:52.203Z,17.07
2023-05-24T05:33:52.044Z,15.99
2023-05-24T05:34:52.077Z,16.34
2023-05-24T05:35:54.737Z,15.47
2023-05-24T05:36:52.076Z,16.50
2023-05-24T05:37:52.027Z,14.95
2023-05-24T05:38:52.074Z,15.29
2023-05-24T05:39:52.046Z,15.40
2023-05-24T05:40:52.068Z,15.73
2023-05-24T05:41:52.039Z,16.21
2023-05-24T05:42:52.016Z,14.85
2023-05-24T05:43:52.008Z,14.66
2023-05-24T05:44:52.019Z,16.30
2023-05-24T05:45:52.033Z,14.90
2023-05-24T05:46:52.016Z,16.39
2023-05-24T05:47:52.116Z,16.49
2023-05-24T05:48:52.081Z,17.46
2023-05-24T05:49:51.981Z,17.48
2023-05-24T05:50:51.981Z,15.18
2023-05-24T05:51:51.966Z,15.76
2023-05-24T05:52:51.979Z,17.10
2023-05-24T05:53:51.995Z,17.48
2023-05-24T05:54:51.998Z,18.44
2023-05-24T05:55:52.058Z,17.12
2023-05-24T05:56:51.919Z,16.89
2023-05-24T05:57:51.911Z,18.31
2023-05-24T05:58:51.870Z,18.04
2023-05-24T05:59:52.095Z,17.89
2023-05-24T06:00:51.937Z,18.08
2023-05-24T06:01:51.953Z,18.60
2023-05-24T06:02:52.047Z,18.89
2023-05-24T06:03:52.373Z,18.73
2023-05-24T06:04:51.936Z,19.16
2023-05-24T06:05:51.937Z,18.46
2023-05-24T06:06:51.988Z,16.77
2023-05-24T06:07:51.891Z,16.91
2023-05-24T06:08:51.813Z,17.46
2023-05-24T06:09:51.837Z,18.37
2023-05-24T06:10:53.095Z,17.76
2023-05-24T06:11:51.869Z,15.33
2023-05-24T06:12:51.832Z,16.09
2023-05-24T06:13:51.830Z,14.63
2023-05-24T06:14:52.117Z,15.69
2023-05-24T06:15:51.862Z,15.43
2023-05-24T06:16:51.860Z,15.54
2023-05-24T06:17:51.872Z,16.32
2023-05-24T06:19:04.547Z,17.99
2023-05-24T06:19:52.781Z,16.88
2023-05-24T06:20:53.063Z,17.25
2023-05-24T06:21:51.868Z,17.14
2023-05-24T06:22:51.771Z,17.31
2023-05-24T06:23:51.739Z,17.10
2023-05-24T06:24:51.742Z,18.32
2023-05-24T06:25:51.800Z,17.27
2023-05-24T06:26:51.724Z,17.00
2023-05-24T06:27:51.731Z,17.02
2023-05-24T06:28:51.682Z,14.99
2023-05-24T06:29:51.742Z,15.79
2023-05-24T06:30:51.792Z,14.28
2023-05-24T06:31:52.160Z,14.20
2023-05-24T06:32:51.810Z,15.97
2023-05-24T06:34:02.414Z,15.25
2023-05-24T06:34:52.786Z,15.07
2023-05-24T06:35:51.788Z,14.56
2023-05-24T06:36:51.904Z,14.33
2023-05-24T06:37:51.732Z,15.03
2023-05-24T06:38:51.738Z,14.48
2023-05-24T06:39:51.724Z,14.32
2023-05-24T06:40:51.698Z,13.60
2023-05-24T06:41:51.811Z,14.37
2023-05-24T06:42:51.714Z,14.17
2023-05-24T06:43:51.721Z,13.76
2023-05-24T06:44:51.736Z,13.11
2023-05-24T06:45:51.678Z,13.63
2023-05-24T06:46:51.838Z,12.17
2023-05-24T06:47:53.169Z,13.51
2023-05-24T06:48:51.875Z,12.03
2023-05-24T06:49:51.899Z,13.29
2023-05-24T06:50:51.870Z,12.31
2023-05-24T06:51:51.873Z,12.00
2023-05-24T06:52:51.878Z,12.27
2023-05-24T06:53:51.890Z,12.83
2023-05-24T06:54:51.939Z,11.04
2023-05-24T06:55:52.020Z,12.24
2023-05-24T06:56:52.015Z,11.18
2023-05-24T06:57:52.036Z,11.91
2023-05-24T06:58:52.032Z,12.21
2023-05-24T06:59:52.129Z,11.91
2023-05-24T07:00:52.174Z,12.18
2023-05-24T07:01:52.203Z,12.64
2023-05-24T07:02:52.192Z,12.03
2023-05-24T07:03:52.209Z,10.80
2023-05-24T07:04:52.256Z,10.07
2023-05-24T07:05:52.266Z,11.44
2023-05-24T07:06:52.294Z,11.80
2023-05-24T07:07:53.584Z,10.75
2023-05-24T07:08:52.361Z,10.18
2023-05-24T07:09:52.419Z,9.71
2023-05-24T07:10:52.399Z,9.87
2023-05-24T07:11:52.429Z,10.12
2023-05-24T07:12:52.447Z,10.39
2023-05-24T07:13:52.476Z,10.29
2023-05-24T07:14:52.483Z,9.32
2023-05-24T07:15:52.513Z,10.38
2023-05-24T07:16:52.570Z,10.03
2023-05-24T07:17:52.767Z,9.54
2023-05-24T07:18:52.611Z,10.74
2023-05-24T07:19:52.729Z,9.74
2023-05-24T07:20:52.767Z,10.03
2023-05-24T07:21:52.748Z,8.99
2023-05-24T07:22:52.746Z,9.26
2023-05-24T07:23:52.814Z,8.46
2023-05-24T07:24:52.813Z,8.82
2023-05-24T07:25:52.862Z,8.94
2023-05-24T07:26:52.916Z,8.36
2023-05-24T07:27:52.928Z,8.69
2023-05-24T07:28:52.946Z,7.94
2023-05-24T07:29:53.033Z,7.18
2023-05-24T07:30:53.301Z,7.37
2023-05-24T07:31:53.087Z,8.04
2023-05-24T07:32:53.394Z,7.92
2023-05-24T07:33:53.081Z,7.01
2023-05-24T07:34:53.095Z,7.24
2023-05-24T07:35:53.090Z,6.87
2023-05-24T07:36:53.144Z,7.12
2023-05-24T07:37:53.194Z,6.82
2023-05-24T07:38:53.229Z,7.65
2023-05-24T07:39:53.229Z,7.09
2023-05-24T07:40:53.265Z,7.45
2023-05-24T07:41:53.448Z,7.47
2023-05-24T07:42:53.349Z,7.56
2023-05-24T07:43:53.354Z,6.78
2023-05-24T07:44:53.416Z,6.81
2023-05-24T07:45:53.428Z,6.83
2023-05-24T07:46:53.509Z,6.97
2023-05-24T07:47:56.021Z,7.90
2023-05-24T07:48:53.486Z,7.13
2023-05-24T07:49:53.473Z,7.62
2023-05-24T07:50:53.477Z,6.88
2023-05-24T07:51:53.707Z,6.62
2023-05-24T07:52:53.405Z,6.85
2023-05-24T07:53:53.421Z,7.07
2023-05-24T07:54:53.395Z,7.18
2023-05-24T07:55:53.427Z,6.33
2023-05-24T07:56:53.425Z,6.51
2023-05-24T07:57:53.413Z,6.68
2023-05-24T07:58:53.365Z,6.34
2023-05-24T07:59:53.370Z,7.21
2023-05-24T08:00:53.592Z,7.19
2023-05-24T08:01:53.488Z,5.96
2023-05-24T08:02:53.422Z,6.14
2023-05-24T08:03:53.525Z,6.84
2023-05-24T08:04:53.351Z,7.44
2023-05-24T08:05:53.355Z,7.19
2023-05-24T08:06:54.232Z,8.28
2023-05-24T08:07:53.578Z,6.99
2023-05-24T08:08:53.285Z,7.31
2023-05-24T08:09:53.291Z,6.91
2023-05-24T08:10:53.297Z,7.70
2023-05-24T08:11:53.310Z,8.05
2023-05-24T08:12:53.261Z,7.62
2023-05-24T08:13:53.281Z,7.51
2023-05-24T08:14:53.323Z,6.78
2023-05-24T08:15:53.268Z,6.76
2023-05-24T08:16:53.307Z,7.40
2023-05-24T08:17:53.272Z,7.76
2023-05-24T08:18:55.122Z,8.43
2023-05-24T08:19:53.310Z,7.43
2023-05-24T08:20:53.216Z,7.88
2023-05-24T08:21:53.274Z,7.67
2023-05-24T08:22:53.207Z,6.84
2023-05-24T08:23:53.264Z,7.81
2023-05-24T08:24:53.279Z,7.39
2023-05-24T08:25:53.249Z,7.35
2023-05-24T08:26:53.326Z,8.28
2023-05-24T08:27:53.357Z,7.48
2023-05-24T08:28:53.389Z,7.96
2023-05-24T08:29:55.481Z,7.75
2023-05-24T08:30:53.406Z,8.15
2023-05-24T08:31:53.543Z,8.43
2023-05-24T08:32:53.468Z,7.63
2023-05-24T08:33:53.362Z,8.45
2023-05-24T08:35:00.337Z,8.18
2023-05-24T08:35:54.409Z,8.17
2023-05-24T08:36:53.406Z,8.36
2023-05-24T08:37:53.370Z,7.44
2023-05-24T08:38:53.386Z,7.56
2023-05-24T08:39:53.354Z,7.41
2023-05-24T08:40:53.497Z,8.77
2023-05-24T08:42:07.894Z,8.06
2023-05-24T08:42:54.381Z,8.64
2023-05-24T08:43:53.474Z,8.16
2023-05-24T08:44:53.286Z,8.02
2023-05-24T08:45:53.384Z,8.60
2023-05-24T08:46:53.420Z,7.91
2023-05-24T08:47:53.434Z,8.22
2023-05-24T08:48:53.346Z,8.22
2023-05-24T08:49:53.393Z,8.81
2023-05-24T08:52:12.526Z,8.20
2023-05-24T08:53:12.603Z,8.06
2023-05-24T08:54:12.600Z,7.57
2023-05-24T08:55:12.639Z,8.48
2023-05-24T08:56:12.700Z,8.24
2023-05-24T08:57:12.694Z,8.46
2023-05-24T08:58:12.665Z,8.30
2023-05-24T08:59:12.693Z,8.32
2023-05-24T09:00:12.912Z,8.39
2023-05-24T09:02:32.006Z,8.13
2023-05-24T09:03:32.175Z,8.62
2023-05-24T09:04:32.070Z,8.24
2023-05-24T09:05:32.217Z,8.57
2023-05-24T09:06:32.614Z,8.63
2023-05-24T09:07:33.229Z,7.44
2023-05-24T09:08:32.214Z,8.31
2023-05-24T09:09:32.330Z,8.87
2023-05-24T09:10:44.761Z,7.00
2023-05-24T09:11:33.235Z,8.02
2023-05-24T09:12:38.125Z,8.46
2023-05-24T09:13:33.318Z,8.35
2023-05-24T09:14:32.199Z,8.92
2023-05-24T09:15:32.216Z,7.99
2023-05-24T09:16:32.268Z,7.79
2023-05-24T09:17:33.589Z,8.36
2023-05-24T09:18:32.237Z,8.58
2023-05-24T09:19:32.179Z,8.82
2023-05-24T09:20:32.182Z,7.55
2023-05-24T09:22:51.333Z,7.29
2023-05-24T09:23:51.364Z,7.85
2023-05-24T09:24:51.374Z,7.43
2023-05-24T09:25:51.490Z,8.60
2023-05-24T09:26:51.441Z,7.93
2023-05-24T09:27:51.419Z,7.68
2023-05-24T09:28:51.403Z,8.04
2023-05-24T09:29:51.395Z,7.65
2023-05-24T09:30:51.404Z,8.27
2023-05-24T09:31:51.466Z,8.19
2023-05-24T09:32:51.418Z,7.28
2023-05-24T09:33:51.412Z,6.84
2023-05-24T09:34:51.401Z,6.64
2023-05-24T09:35:51.324Z,6.16
2023-05-24T09:36:51.447Z,6.30
2023-05-24T09:37:51.347Z,7.58
2023-05-24T09:38:51.420Z,7.42
2023-05-24T09:39:51.372Z,6.78
2023-05-24T09:40:51.366Z,6.70
2023-05-24T09:41:51.325Z,6.58
2023-05-24T09:42:51.392Z,7.31
2023-05-24T09:43:51.282Z,7.69
2023-05-24T09:44:51.397Z,7.17
2023-05-24T09:45:51.263Z,6.76
2023-05-24T09:46:51.482Z,7.05
2023-05-24T09:47:51.257Z,6.61
2023-05-24T09:48:51.274Z,6.92
2023-05-24T09:49:51.240Z,6.76
2023-05-24T09:50:51.231Z,6.68
2023-05-24T09:51:51.341Z,6.12
2023-05-24T09:52:51.229Z,6.19
2023-05-24T09:53:51.193Z,6.61
2023-05-24T09:54:51.240Z,6.45
2023-05-24T09:55:51.202Z,6.83
2023-05-24T09:56:51.632Z,6.33
2023-05-24T09:57:51.190Z,5.79
2023-05-24T09:58:51.194Z,6.42
2023-05-24T09:59:51.194Z,5.66
2023-05-24T10:00:51.252Z,6.93
2023-05-24T10:01:51.352Z,6.60
2023-05-24T10:03:52.243Z,7.82
2023-05-24T10:04:51.269Z,6.25
2023-05-24T10:05:51.152Z,6.84
2023-05-24T10:06:51.157Z,6.48
2023-05-24T10:07:51.151Z,6.72
2023-05-24T10:08:51.137Z,6.80
2023-05-24T10:09:51.092Z,6.37
2023-05-24T10:10:51.085Z,6.94
2023-05-24T10:11:51.126Z,6.46
2023-05-24T10:12:51.096Z,6.71
2023-05-24T10:13:51.101Z,6.39
2023-05-24T10:14:51.104Z,6.72
2023-05-24T10:15:51.088Z,7.01
2023-05-24T10:16:51.093Z,6.44
2023-05-24T10:17:51.121Z,6.65
2023-05-24T10:18:51.063Z,6.92
2023-05-24T10:19:51.217Z,7.13
2023-05-24T10:20:51.621Z,6.73
2023-05-24T10:21:51.312Z,7.77
2023-05-24T10:22:51.315Z,7.68
2023-05-24T10:23:51.273Z,7.74
2023-05-24T10:24:51.352Z,6.91
2023-05-24T10:25:51.348Z,8.34
2023-05-24T10:26:51.424Z,7.26
2023-05-24T10:27:51.392Z,8.01
2023-05-24T10:28:51.440Z,7.83
2023-05-24T10:29:51.513Z,8.36
2023-05-24T10:31:02.636Z,7.91
2023-05-24T10:31:51.570Z,9.01
2023-05-24T10:32:51.563Z,8.45
2023-05-24T10:33:51.520Z,9.04
2023-05-24T10:34:51.539Z,9.04
2023-05-24T10:35:51.560Z,8.62
2023-05-24T10:36:51.568Z,7.85
2023-05-24T10:37:51.570Z,8.67
2023-05-24T10:38:51.611Z,8.92
2023-05-24T10:39:51.661Z,8.03
2023-05-24T10:40:52.038Z,7.63
2023-05-24T10:41:46.184Z,6.03
2023-05-24T10:41:51.682Z,8.64
2023-05-24T10:42:51.708Z,8.22
2023-05-24T10:44:07.949Z,8.94
2023-05-24T10:44:52.689Z,8.74
2023-05-24T10:45:51.791Z,7.14
2023-05-24T10:46:51.761Z,9.04
2023-05-24T10:47:51.721Z,9.10
2023-05-24T10:48:51.681Z,8.18
2023-05-24T10:49:51.660Z,7.96
2023-05-24T10:50:51.702Z,7.85
2023-05-24T10:51:51.636Z,8.54
2023-05-24T10:52:51.615Z,8.31
2023-05-24T10:53:51.613Z,8.82
2023-05-24T10:55:03.421Z,8.04
2023-05-24T10:55:52.624Z,8.78
2023-05-24T10:56:51.649Z,7.52
2023-05-24T10:57:51.747Z,7.77
2023-05-24T10:58:51.606Z,8.24
2023-05-24T10:59:51.605Z,9.13
2023-05-24T11:00:51.716Z,7.88
2023-05-24T11:01:51.624Z,7.92
2023-05-24T11:02:51.578Z,8.58
2023-05-24T11:03:51.554Z,8.02
2023-05-24T11:04:51.770Z,8.94
2023-05-24T11:05:51.678Z,7.61
2023-05-24T11:06:51.580Z,7.35
2023-05-24T11:07:51.533Z,7.91
2023-05-24T11:08:51.542Z,8.85
2023-05-24T11:09:51.601Z,8.48
2023-05-24T11:10:51.574Z,7.97
2023-05-24T11:11:59.184Z,8.95
2023-05-24T11:12:51.560Z,9.14
2023-05-24T11:13:51.523Z,8.24
2023-05-24T11:14:51.544Z,7.83
2023-05-24T11:15:51.561Z,7.55
2023-05-24T11:16:51.793Z,8.36
2023-05-24T11:17:51.579Z,7.38
2023-05-24T11:18:51.602Z,7.66
2023-05-24T11:19:51.555Z,8.23
2023-05-24T11:20:51.627Z,7.63
2023-05-24T11:21:51.513Z,7.76
2023-05-24T11:22:51.454Z,7.14
2023-05-24T11:23:51.494Z,7.01
2023-05-24T11:24:51.443Z,7.47
2023-05-24T11:25:51.457Z,7.26
2023-05-24T11:26:51.587Z,7.72
2023-05-24T11:27:51.512Z,6.76
2023-05-24T11:28:51.413Z,6.70
2023-05-24T11:29:51.436Z,5.95
2023-05-24T11:30:51.398Z,6.17
2023-05-24T11:31:51.529Z,6.22
2023-05-24T11:32:51.427Z,6.15
2023-05-24T11:33:51.386Z,6.54
2023-05-24T11:34:51.418Z,6.16
2023-05-24T11:35:51.407Z,6.80
2023-05-24T11:36:51.366Z,6.56
2023-05-24T11:37:51.399Z,5.88
2023-05-24T11:38:51.377Z,6.75
2023-05-24T11:39:51.508Z,5.52
2023-05-24T11:40:51.412Z,6.03
2023-05-24T11:41:51.435Z,5.75
2023-05-24T11:42:51.424Z,6.28
2023-05-24T11:43:51.469Z,6.13
2023-05-24T11:44:51.521Z,4.94
2023-05-24T11:45:51.635Z,4.92
2023-05-24T11:46:51.651Z,2.97
2023-05-24T11:47:51.691Z,2.82
2023-05-24T11:48:51.723Z,2.93
2023-05-24T11:49:51.867Z,2.01
2023-05-24T11:50:52.053Z,1.87
2023-05-24T11:51:51.870Z,1.82
2023-05-24T11:52:51.932Z,1.77
2023-05-24T11:53:54.456Z,2.00
2023-05-24T11:54:51.893Z,1.19
2023-05-24T11:55:51.867Z,1.23
2023-05-24T11:56:51.896Z,1.25
2023-05-24T11:57:51.886Z,1.10
2023-05-24T11:58:51.872Z,0.88
2023-05-24T11:59:51.840Z,0.95
2023-05-24T12:00:51.821Z,0.84
2023-05-24T12:01:51.907Z,1.20
2023-05-24T12:02:54.565Z,0.84
2023-05-24T12:03:51.953Z,1.04
2023-05-24T12:04:51.867Z,1.12
2023-05-24T12:05:51.826Z,0.64
2023-05-24T12:06:51.835Z,0.94
2023-05-24T12:07:51.798Z,0.58
2023-05-24T12:08:51.773Z,0.61
2023-05-24T12:09:51.796Z,0.74
2023-05-24T12:10:51.829Z,1.04
2023-05-24T12:11:52.304Z,1.25
2023-05-24T12:12:51.777Z,0.97
2023-05-24T12:13:51.712Z,0.98
2023-05-24T12:14:51.749Z,0.94
2023-05-24T12:15:54.059Z,0.95
2023-05-24T12:16:51.743Z,0.99
2023-05-24T12:17:51.757Z,1.52
2023-05-24T12:19:03.690Z,1.29
2023-05-24T12:19:52.729Z,1.48
2023-05-24T12:20:51.723Z,1.55
2023-05-24T12:21:53.963Z,1.27
2023-05-24T12:22:51.791Z,1.54
2023-05-24T12:23:51.778Z,0.86
2023-05-24T12:24:51.848Z,1.27
2023-05-24T12:25:51.878Z,0.94
2023-05-24T12:26:51.912Z,1.17
2023-05-24T12:27:54.326Z,1.08
2023-05-24T12:28:51.890Z,1.19
2023-05-24T12:29:51.941Z,1.07
2023-05-24T12:30:51.903Z,0.47
2023-05-24T12:31:52.092Z,0.73
2023-05-24T12:32:51.943Z,0.93
2023-05-24T12:33:54.205Z,1.13
2023-05-24T12:34:52.124Z,1.12
2023-05-24T12:35:52.157Z,1.00
2023-05-24T12:36:52.150Z,0.97
2023-05-24T12:37:52.177Z,0.91
2023-05-24T12:38:52.182Z,1.07
2023-05-24T12:39:54.436Z,1.29
2023-05-24T12:41:08.248Z,1.04
2023-05-24T12:41:53.320Z,1.09
2023-05-24T12:42:52.309Z,1.04
2023-05-24T12:43:52.283Z,1.33
2023-05-24T12:44:52.260Z,0.99
2023-05-24T12:45:54.283Z,0.96
2023-05-24T12:46:52.279Z,1.04
2023-05-24T12:47:52.300Z,0.99
2023-05-24T12:48:52.258Z,0.92
2023-05-24T12:49:53.291Z,0.82
2023-05-24T12:50:52.255Z,0.96
2023-05-24T12:51:52.261Z,1.29
2023-05-24T12:52:52.293Z,1.12
2023-05-24T12:53:52.335Z,1.38
2023-05-24T12:54:52.393Z,0.98
2023-05-24T12:55:52.449Z,0.83
2023-05-24T12:56:55.576Z,1.11
2023-05-24T12:57:52.431Z,1.13
2023-05-24T12:58:52.418Z,1.46
2023-05-24T12:59:52.425Z,1.14
2023-05-24T13:00:52.432Z,1.53
2023-05-24T13:01:52.778Z,1.10
2023-05-24T13:02:52.424Z,0.95
2023-05-24T13:03:52.408Z,0.98
2023-05-24T13:04:52.437Z,0.67
2023-05-24T13:05:52.522Z,1.11
2023-05-24T13:06:52.369Z,1.17
2023-05-24T13:07:52.354Z,1.07
2023-05-24T13:08:52.358Z,0.84
2023-05-24T13:09:52.324Z,0.89